sensor_id;sensor_type;location;lat;lon;timestamp;temperature;humidity
37594;DHT22;23441;50.856;6.076;2023-05-10T00:01:55;12.70;99.90
37594;DHT22;23441;50.856;6.076;2023-05-10T00:04:21;12.70;99.90
37594;DHT22;23441;50.856;6.076;2023-05-10T00:06:47;12.70;99.90
37594;DHT22;23441;50.856;6.076;2023-05-10T00:09:13;12.70;99.90
37594;DHT22;23441;50.856;6.076;2023-05-10T00:11:39;12.70;99.90
37594;DHT22;23441;50.856;6.076;2023-05-10T00:14:04;12.70;99.90
37594;DHT22;23441;50.856;6.076;2023-05-10T00:16:30;12.70;99.90
37594;DHT22;23441;50.856;6.076;2023-05-10T00:18:56;12.60;99.90
37594;DHT22;23441;50.856;6.076;2023-05-10T00:21:21;12.60;99.90
37594;DHT22;23441;50.856;6.076;2023-05-10T00:23:47;12.60;99.90
37594;DHT22;23441;50.856;6.076;2023-05-10T00:26:12;12.60;99.90
37594;DHT22;23441;50.856;6.076;2023-05-10T00:28:38;12.60;99.90
37594;DHT22;23441;50.856;6.076;2023-05-10T00:31:03;12.70;99.90
37594;DHT22;23441;50.856;6.076;2023-05-10T00:33:29;12.60;99.90
37594;DHT22;23441;50.856;6.076;2023-05-10T00:35:55;12.70;99.90
37594;DHT22;23441;50.856;6.076;2023-05-10T00:38:20;12.70;99.90
37594;DHT22;23441;50.856;6.076;2023-05-10T00:40:46;12.70;99.90
37594;DHT22;23441;50.856;6.076;2023-05-10T00:43:11;12.70;99.90
37594;DHT22;23441;50.856;6.076;2023-05-10T00:45:37;12.70;99.90
37594;DHT22;23441;50.856;6.076;2023-05-10T00:48:05;12.70;99.90
37594;DHT22;23441;50.856;6.076;2023-05-10T00:50:31;12.70;99.90
37594;DHT22;23441;50.856;6.076;2023-05-10T00:52:59;12.70;99.90
37594;DHT22;23441;50.856;6.076;2023-05-10T00:55:25;12.70;99.90
37594;DHT22;23441;50.856;6.076;2023-05-10T00:57:52;12.70;99.90
37594;DHT22;23441;50.856;6.076;2023-05-10T01:00:18;12.70;99.90
37594;DHT22;23441;50.856;6.076;2023-05-10T01:02:45;12.70;99.90
37594;DHT22;23441;50.856;6.076;2023-05-10T01:05:11;12.70;99.90
37594;DHT22;23441;50.856;6.076;2023-05-10T01:07:37;12.70;99.90
37594;DHT22;23441;50.856;6.076;2023-05-10T01:10:04;12.60;99.90
37594;DHT22;23441;50.856;6.076;2023-05-10T01:12:29;12.70;99.90
37594;DHT22;23441;50.856;6.076;2023-05-10T01:14:55;12.70;99.90
37594;DHT22;23441;50.856;6.076;2023-05-10T01:17:22;12.60;99.90
37594;DHT22;23441;50.856;6.076;2023-05-10T01:19:47;12.60;99.90
37594;DHT22;23441;50.856;6.076;2023-05-10T01:25:19;12.70;99.90
37594;DHT22;23441;50.856;6.076;2023-05-10T01:33:59;12.70;99.90
37594;DHT22;23441;50.856;6.076;2023-05-10T01:36:51;12.70;99.90
37594;DHT22;23441;50.856;6.076;2023-05-10T01:39:25;12.60;99.90
37594;DHT22;23441;50.856;6.076;2023-05-10T01:47:46;12.60;99.90
37594;DHT22;23441;50.856;6.076;2023-05-10T01:50:23;12.60;99.90
37594;DHT22;23441;50.856;6.076;2023-05-10T01:52:53;12.60;99.90
37594;DHT22;23441;50.856;6.076;2023-05-10T01:55:25;12.60;99.90
37594;DHT22;23441;50.856;6.076;2023-05-10T01:58:06;12.60;99.90
37594;DHT22;23441;50.856;6.076;2023-05-10T02:00:34;12.60;99.90
37594;DHT22;23441;50.856;6.076;2023-05-10T02:03:06;12.60;99.90
37594;DHT22;23441;50.856;6.076;2023-05-10T02:05:34;12.60;99.90
37594;DHT22;23441;50.856;6.076;2023-05-10T02:08:01;12.60;99.90
37594;DHT22;23441;50.856;6.076;2023-05-10T02:10:29;12.60;99.90
37594;DHT22;23441;50.856;6.076;2023-05-10T02:12:58;12.60;99.90
37594;DHT22;23441;50.856;6.076;2023-05-10T02:15:26;12.50;99.90
37594;DHT22;23441;50.856;6.076;2023-05-10T02:17:54;12.50;99.90
37594;DHT22;23441;50.856;6.076;2023-05-10T02:20:22;12.50;99.90
37594;DHT22;23441;50.856;6.076;2023-05-10T02:22:51;12.50;99.90
37594;DHT22;23441;50.856;6.076;2023-05-10T02:25:19;12.40;99.90
37594;DHT22;23441;50.856;6.076;2023-05-10T02:27:47;12.40;99.90
37594;DHT22;23441;50.856;6.076;2023-05-10T02:30:14;12.40;99.90
37594;DHT22;23441;50.856;6.076;2023-05-10T02:32:40;12.50;99.90
37594;DHT22;23441;50.856;6.076;2023-05-10T02:35:07;12.40;99.90
37594;DHT22;23441;50.856;6.076;2023-05-10T02:37:34;12.40;99.90
37594;DHT22;23441;50.856;6.076;2023-05-10T02:40:01;12.40;99.90
37594;DHT22;23441;50.856;6.076;2023-05-10T02:42:29;12.30;99.90
37594;DHT22;23441;50.856;6.076;2023-05-10T02:45:10;12.30;99.90
37594;DHT22;23441;50.856;6.076;2023-05-10T02:47:36;12.30;99.90
37594;DHT22;23441;50.856;6.076;2023-05-10T02:50:03;12.30;99.90
37594;DHT22;23441;50.856;6.076;2023-05-10T02:52:43;12.30;99.90
37594;DHT22;23441;50.856;6.076;2023-05-10T02:55:12;12.30;99.90
37594;DHT22;23441;50.856;6.076;2023-05-10T02:57:50;12.30;99.90
37594;DHT22;23441;50.856;6.076;2023-05-10T03:00:17;12.30;99.90
37594;DHT22;23441;50.856;6.076;2023-05-10T03:02:42;12.30;99.90
37594;DHT22;23441;50.856;6.076;2023-05-10T03:05:08;12.20;99.90
37594;DHT22;23441;50.856;6.076;2023-05-10T03:07:34;12.20;99.90
37594;DHT22;23441;50.856;6.076;2023-05-10T03:10:00;12.20;99.90
37594;DHT22;23441;50.856;6.076;2023-05-10T03:15:11;12.10;99.90
37594;DHT22;23441;50.856;6.076;2023-05-10T03:20:15;12.10;99.90
37594;DHT22;23441;50.856;6.076;2023-05-10T03:22:45;12.10;99.90
37594;DHT22;23441;50.856;6.076;2023-05-10T03:25:12;12.10;99.90
37594;DHT22;23441;50.856;6.076;2023-05-10T03:27:41;12.00;99.90
37594;DHT22;23441;50.856;6.076;2023-05-10T03:30:09;12.10;99.90
37594;DHT22;23441;50.856;6.076;2023-05-10T03:32:35;12.10;99.90
37594;DHT22;23441;50.856;6.076;2023-05-10T03:35:07;12.10;99.90
37594;DHT22;23441;50.856;6.076;2023-05-10T03:37:32;12.00;99.90
37594;DHT22;23441;50.856;6.076;2023-05-10T03:39:58;12.00;99.90
37594;DHT22;23441;50.856;6.076;2023-05-10T03:42:24;12.10;99.90
37594;DHT22;23441;50.856;6.076;2023-05-10T03:44:49;12.10;99.90
37594;DHT22;23441;50.856;6.076;2023-05-10T03:47:15;12.10;99.90
37594;DHT22;23441;50.856;6.076;2023-05-10T03:49:40;12.00;99.90
37594;DHT22;23441;50.856;6.076;2023-05-10T03:52:06;12.10;99.90
37594;DHT22;23441;50.856;6.076;2023-05-10T03:54:32;12.00;99.90
37594;DHT22;23441;50.856;6.076;2023-05-10T03:56:57;12.00;99.90
37594;DHT22;23441;50.856;6.076;2023-05-10T03:59:23;12.00;99.90
37594;DHT22;23441;50.856;6.076;2023-05-10T04:01:48;12.10;99.90
37594;DHT22;23441;50.856;6.076;2023-05-10T04:04:14;12.10;99.90
37594;DHT22;23441;50.856;6.076;2023-05-10T04:06:40;12.10;99.90
37594;DHT22;23441;50.856;6.076;2023-05-10T04:09:05;12.10;99.90
37594;DHT22;23441;50.856;6.076;2023-05-10T04:11:31;12.10;99.90
37594;DHT22;23441;50.856;6.076;2023-05-10T04:13:57;12.10;99.90
37594;DHT22;23441;50.856;6.076;2023-05-10T04:16:23;12.00;99.90
37594;DHT22;23441;50.856;6.076;2023-05-10T04:18:48;12.10;99.90
37594;DHT22;23441;50.856;6.076;2023-05-10T04:21:14;12.10;99.90
37594;DHT22;23441;50.856;6.076;2023-05-10T04:23:40;12.10;99.90
37594;DHT22;23441;50.856;6.076;2023-05-10T04:26:06;12.20;99.90
37594;DHT22;23441;50.856;6.076;2023-05-10T04:28:32;12.20;99.90
37594;DHT22;23441;50.856;6.076;2023-05-10T04:31:02;12.10;99.90
37594;DHT22;23441;50.856;6.076;2023-05-10T04:33:28;12.10;99.90
37594;DHT22;23441;50.856;6.076;2023-05-10T04:35:54;12.20;99.90
37594;DHT22;23441;50.856;6.076;2023-05-10T04:38:19;12.20;99.90
37594;DHT22;23441;50.856;6.076;2023-05-10T04:40:45;12.20;99.90
37594;DHT22;23441;50.856;6.076;2023-05-10T04:43:10;12.20;99.90
37594;DHT22;23441;50.856;6.076;2023-05-10T04:45:36;12.20;99.90
37594;DHT22;23441;50.856;6.076;2023-05-10T04:48:02;12.10;99.90
37594;DHT22;23441;50.856;6.076;2023-05-10T04:50:27;12.10;99.90
37594;DHT22;23441;50.856;6.076;2023-05-10T04:52:53;12.10;99.90
37594;DHT22;23441;50.856;6.076;2023-05-10T04:55:19;12.20;99.90
37594;DHT22;23441;50.856;6.076;2023-05-10T04:57:44;12.20;99.90
37594;DHT22;23441;50.856;6.076;2023-05-10T05:00:10;12.20;99.90
37594;DHT22;23441;50.856;6.076;2023-05-10T05:02:36;12.20;99.90
37594;DHT22;23441;50.856;6.076;2023-05-10T05:05:02;12.20;99.90
37594;DHT22;23441;50.856;6.076;2023-05-10T05:07:28;12.10;99.90
37594;DHT22;23441;50.856;6.076;2023-05-10T05:09:54;12.20;99.90
37594;DHT22;23441;50.856;6.076;2023-05-10T05:12:19;12.20;99.90
37594;DHT22;23441;50.856;6.076;2023-05-10T05:14:45;12.20;99.90
37594;DHT22;23441;50.856;6.076;2023-05-10T05:17:10;12.30;99.90
37594;DHT22;23441;50.856;6.076;2023-05-10T05:19:36;12.20;99.90
37594;DHT22;23441;50.856;6.076;2023-05-10T05:22:02;12.30;99.90
37594;DHT22;23441;50.856;6.076;2023-05-10T05:24:27;12.20;99.90
37594;DHT22;23441;50.856;6.076;2023-05-10T05:26:53;12.20;99.90
37594;DHT22;23441;50.856;6.076;2023-05-10T05:29:18;12.30;99.90
37594;DHT22;23441;50.856;6.076;2023-05-10T05:31:44;12.20;99.90
37594;DHT22;23441;50.856;6.076;2023-05-10T05:34:10;12.30;99.90
37594;DHT22;23441;50.856;6.076;2023-05-10T05:36:38;12.20;99.90
37594;DHT22;23441;50.856;6.076;2023-05-10T05:39:04;12.30;99.90
37594;DHT22;23441;50.856;6.076;2023-05-10T05:41:29;12.30;99.90
37594;DHT22;23441;50.856;6.076;2023-05-10T05:43:55;12.30;99.90
37594;DHT22;23441;50.856;6.076;2023-05-10T05:46:20;12.30;99.90
37594;DHT22;23441;50.856;6.076;2023-05-10T05:48:46;12.40;99.90
37594;DHT22;23441;50.856;6.076;2023-05-10T05:51:12;12.30;99.90
37594;DHT22;23441;50.856;6.076;2023-05-10T05:53:37;12.30;99.90
37594;DHT22;23441;50.856;6.076;2023-05-10T05:56:03;12.30;99.90
37594;DHT22;23441;50.856;6.076;2023-05-10T05:58:29;12.40;99.90
37594;DHT22;23441;50.856;6.076;2023-05-10T06:00:55;12.30;99.90
37594;DHT22;23441;50.856;6.076;2023-05-10T06:03:20;12.40;99.90
37594;DHT22;23441;50.856;6.076;2023-05-10T06:05:46;12.40;99.90
37594;DHT22;23441;50.856;6.076;2023-05-10T06:08:11;12.40;99.90
37594;DHT22;23441;50.856;6.076;2023-05-10T06:10:37;12.50;99.90
37594;DHT22;23441;50.856;6.076;2023-05-10T06:13:03;12.50;99.90
37594;DHT22;23441;50.856;6.076;2023-05-10T06:15:28;12.50;99.90
37594;DHT22;23441;50.856;6.076;2023-05-10T06:17:54;12.50;99.90
37594;DHT22;23441;50.856;6.076;2023-05-10T06:20:20;12.50;99.90
37594;DHT22;23441;50.856;6.076;2023-05-10T06:22:46;12.50;99.90
37594;DHT22;23441;50.856;6.076;2023-05-10T06:25:11;12.50;99.90
37594;DHT22;23441;50.856;6.076;2023-05-10T06:27:37;12.50;99.90
37594;DHT22;23441;50.856;6.076;2023-05-10T06:30:04;12.50;99.90
37594;DHT22;23441;50.856;6.076;2023-05-10T06:32:30;12.60;99.90
37594;DHT22;23441;50.856;6.076;2023-05-10T06:34:55;12.60;99.90
37594;DHT22;23441;50.856;6.076;2023-05-10T06:37:21;12.60;99.90
37594;DHT22;23441;50.856;6.076;2023-05-10T06:39:47;12.60;99.90
37594;DHT22;23441;50.856;6.076;2023-05-10T06:42:12;12.60;99.90
37594;DHT22;23441;50.856;6.076;2023-05-10T06:44:38;12.60;99.90
37594;DHT22;23441;50.856;6.076;2023-05-10T06:47:03;12.70;99.90
37594;DHT22;23441;50.856;6.076;2023-05-10T06:49:30;12.70;99.90
37594;DHT22;23441;50.856;6.076;2023-05-10T06:51:56;12.70;99.90
37594;DHT22;23441;50.856;6.076;2023-05-10T06:54:21;12.80;99.90
37594;DHT22;23441;50.856;6.076;2023-05-10T06:56:47;12.90;99.90
37594;DHT22;23441;50.856;6.076;2023-05-10T06:59:12;12.90;99.90
37594;DHT22;23441;50.856;6.076;2023-05-10T07:01:39;12.80;99.90
37594;DHT22;23441;50.856;6.076;2023-05-10T07:04:05;12.80;99.90
37594;DHT22;23441;50.856;6.076;2023-05-10T07:06:32;12.80;99.90
37594;DHT22;23441;50.856;6.076;2023-05-10T07:08:58;12.70;99.90
37594;DHT22;23441;50.856;6.076;2023-05-10T07:11:24;12.70;99.90
37594;DHT22;23441;50.856;6.076;2023-05-10T07:13:50;12.60;99.90
37594;DHT22;23441;50.856;6.076;2023-05-10T07:16:16;12.50;99.90
37594;DHT22;23441;50.856;6.076;2023-05-10T07:18:41;12.50;99.90
37594;DHT22;23441;50.856;6.076;2023-05-10T07:21:07;12.40;99.90
37594;DHT22;23441;50.856;6.076;2023-05-10T07:23:32;12.40;99.90
37594;DHT22;23441;50.856;6.076;2023-05-10T07:25:58;12.30;99.90
37594;DHT22;23441;50.856;6.076;2023-05-10T07:28:24;12.30;99.90
37594;DHT22;23441;50.856;6.076;2023-05-10T07:30:50;12.30;99.90
37594;DHT22;23441;50.856;6.076;2023-05-10T07:33:17;12.20;99.90
37594;DHT22;23441;50.856;6.076;2023-05-10T07:35:43;12.20;99.90
37594;DHT22;23441;50.856;6.076;2023-05-10T07:38:08;12.30;99.90
37594;DHT22;23441;50.856;6.076;2023-05-10T07:40:36;12.30;99.90
37594;DHT22;23441;50.856;6.076;2023-05-10T07:43:01;12.30;99.90
37594;DHT22;23441;50.856;6.076;2023-05-10T07:45:27;12.40;99.90
37594;DHT22;23441;50.856;6.076;2023-05-10T07:47:53;12.40;99.90
37594;DHT22;23441;50.856;6.076;2023-05-10T07:50:19;12.40;99.90
37594;DHT22;23441;50.856;6.076;2023-05-10T07:52:46;12.40;99.90
37594;DHT22;23441;50.856;6.076;2023-05-10T07:55:12;12.40;99.90
37594;DHT22;23441;50.856;6.076;2023-05-10T07:57:38;12.40;99.90
37594;DHT22;23441;50.856;6.076;2023-05-10T08:00:05;12.50;99.90
37594;DHT22;23441;50.856;6.076;2023-05-10T08:02:30;12.50;99.90
37594;DHT22;23441;50.856;6.076;2023-05-10T08:04:56;12.50;99.90
37594;DHT22;23441;50.856;6.076;2023-05-10T08:07:24;12.60;99.90
37594;DHT22;23441;50.856;6.076;2023-05-10T08:09:50;12.70;99.90
37594;DHT22;23441;50.856;6.076;2023-05-10T08:12:15;12.70;99.90
37594;DHT22;23441;50.856;6.076;2023-05-10T08:14:41;12.70;99.90
37594;DHT22;23441;50.856;6.076;2023-05-10T08:17:07;12.70;99.90
37594;DHT22;23441;50.856;6.076;2023-05-10T08:19:32;12.70;99.90
37594;DHT22;23441;50.856;6.076;2023-05-10T08:21:58;12.70;99.90
37594;DHT22;23441;50.856;6.076;2023-05-10T08:24:23;12.70;99.90
37594;DHT22;23441;50.856;6.076;2023-05-10T08:26:49;12.70;99.90
37594;DHT22;23441;50.856;6.076;2023-05-10T08:29:15;12.70;99.90
37594;DHT22;23441;50.856;6.076;2023-05-10T08:31:41;12.70;99.90
37594;DHT22;23441;50.856;6.076;2023-05-10T08:34:07;12.60;99.90
37594;DHT22;23441;50.856;6.076;2023-05-10T08:36:32;12.60;99.90
37594;DHT22;23441;50.856;6.076;2023-05-10T08:38:58;12.50;99.90
37594;DHT22;23441;50.856;6.076;2023-05-10T08:41:24;12.40;99.90
37594;DHT22;23441;50.856;6.076;2023-05-10T08:43:52;12.30;99.90
37594;DHT22;23441;50.856;6.076;2023-05-10T08:46:19;12.30;99.90
37594;DHT22;23441;50.856;6.076;2023-05-10T08:48:46;12.40;99.90
37594;DHT22;23441;50.856;6.076;2023-05-10T08:51:20;12.40;99.90
37594;DHT22;23441;50.856;6.076;2023-05-10T08:53:47;12.50;99.90
37594;DHT22;23441;50.856;6.076;2023-05-10T08:56:13;12.50;99.90
37594;DHT22;23441;50.856;6.076;2023-05-10T08:58:41;12.50;99.90
37594;DHT22;23441;50.856;6.076;2023-05-10T09:01:07;12.40;99.90
37594;DHT22;23441;50.856;6.076;2023-05-10T09:03:34;12.50;99.90
37594;DHT22;23441;50.856;6.076;2023-05-10T09:06:00;12.70;99.90
37594;DHT22;23441;50.856;6.076;2023-05-10T09:08:26;12.70;99.90
37594;DHT22;23441;50.856;6.076;2023-05-10T09:10:54;12.80;99.90
37594;DHT22;23441;50.856;6.076;2023-05-10T09:13:21;12.80;99.90
37594;DHT22;23441;50.856;6.076;2023-05-10T09:15:47;12.80;99.90
37594;DHT22;23441;50.856;6.076;2023-05-10T09:18:13;12.80;99.90
37594;DHT22;23441;50.856;6.076;2023-05-10T09:20:39;12.80;99.90
37594;DHT22;23441;50.856;6.076;2023-05-10T09:23:05;12.80;99.90
37594;DHT22;23441;50.856;6.076;2023-05-10T09:25:31;12.80;99.90
37594;DHT22;23441;50.856;6.076;2023-05-10T09:27:59;12.90;99.90
37594;DHT22;23441;50.856;6.076;2023-05-10T09:30:27;12.70;99.90
37594;DHT22;23441;50.856;6.076;2023-05-10T09:32:53;12.80;99.90
37594;DHT22;23441;50.856;6.076;2023-05-10T09:35:21;13.00;99.90
37594;DHT22;23441;50.856;6.076;2023-05-10T09:37:49;13.10;99.90
37594;DHT22;23441;50.856;6.076;2023-05-10T09:40:20;13.20;99.90
37594;DHT22;23441;50.856;6.076;2023-05-10T09:45:25;13.40;99.90
37594;DHT22;23441;50.856;6.076;2023-05-10T09:47:51;13.30;99.90
37594;DHT22;23441;50.856;6.076;2023-05-10T09:50:18;13.40;99.90
37594;DHT22;23441;50.856;6.076;2023-05-10T09:52:56;13.30;99.90
37594;DHT22;23441;50.856;6.076;2023-05-10T09:55:39;13.30;99.90
37594;DHT22;23441;50.856;6.076;2023-05-10T09:58:05;13.30;99.90
37594;DHT22;23441;50.856;6.076;2023-05-10T10:00:45;13.30;99.90
37594;DHT22;23441;50.856;6.076;2023-05-10T10:03:20;13.30;99.90
37594;DHT22;23441;50.856;6.076;2023-05-10T10:05:47;13.40;99.90
37594;DHT22;23441;50.856;6.076;2023-05-10T10:08:15;13.20;99.90
37594;DHT22;23441;50.856;6.076;2023-05-10T10:10:41;13.30;99.90
37594;DHT22;23441;50.856;6.076;2023-05-10T10:13:09;13.30;99.90
37594;DHT22;23441;50.856;6.076;2023-05-10T10:15:35;13.50;99.90
37594;DHT22;23441;50.856;6.076;2023-05-10T10:18:01;13.80;99.90
37594;DHT22;23441;50.856;6.076;2023-05-10T10:20:29;14.10;99.90
37594;DHT22;23441;50.856;6.076;2023-05-10T10:22:54;14.30;99.90
37594;DHT22;23441;50.856;6.076;2023-05-10T10:25:21;14.20;99.90
37594;DHT22;23441;50.856;6.076;2023-05-10T10:30:51;14.20;99.90
37594;DHT22;23441;50.856;6.076;2023-05-10T10:36:20;14.20;99.90
37594;DHT22;23441;50.856;6.076;2023-05-10T10:41:28;14.40;99.90
37594;DHT22;23441;50.856;6.076;2023-05-10T10:49:42;14.20;99.90
37594;DHT22;23441;50.856;6.076;2023-05-10T10:57:28;14.10;99.90
37594;DHT22;23441;50.856;6.076;2023-05-10T11:02:48;14.00;99.90
37594;DHT22;23441;50.856;6.076;2023-05-10T11:05:34;13.90;99.90
37594;DHT22;23441;50.856;6.076;2023-05-10T11:08:30;14.10;99.90
37594;DHT22;23441;50.856;6.076;2023-05-10T11:13:50;14.80;99.90
37594;DHT22;23441;50.856;6.076;2023-05-10T11:21:26;14.60;99.90
37594;DHT22;23441;50.856;6.076;2023-05-10T11:23:57;14.60;99.90
37594;DHT22;23441;50.856;6.076;2023-05-10T11:26:31;14.40;99.90
37594;DHT22;23441;50.856;6.076;2023-05-10T11:28:57;14.30;99.90
37594;DHT22;23441;50.856;6.076;2023-05-10T11:31:25;14.50;99.90
37594;DHT22;23441;50.856;6.076;2023-05-10T11:33:56;14.60;99.90
37594;DHT22;23441;50.856;6.076;2023-05-10T11:36:26;14.80;99.90
37594;DHT22;23441;50.856;6.076;2023-05-10T11:38:53;14.80;99.90
37594;DHT22;23441;50.856;6.076;2023-05-10T11:41:19;14.90;99.90
37594;DHT22;23441;50.856;6.076;2023-05-10T11:43:55;15.00;99.90
37594;DHT22;23441;50.856;6.076;2023-05-10T11:46:23;15.10;99.90
37594;DHT22;23441;50.856;6.076;2023-05-10T11:48:50;15.20;99.90
37594;DHT22;23441;50.856;6.076;2023-05-10T11:51:23;15.10;99.90
37594;DHT22;23441;50.856;6.076;2023-05-10T11:53:52;15.10;99.90
37594;DHT22;23441;50.856;6.076;2023-05-10T11:56:17;15.10;99.90
37594;DHT22;23441;50.856;6.076;2023-05-10T11:58:43;15.30;99.90
37594;DHT22;23441;50.856;6.076;2023-05-10T12:01:09;15.80;99.90
37594;DHT22;23441;50.856;6.076;2023-05-10T12:03:36;16.20;99.90
37594;DHT22;23441;50.856;6.076;2023-05-10T12:06:02;16.40;99.90
37594;DHT22;23441;50.856;6.076;2023-05-10T12:08:29;16.30;99.90
37594;DHT22;23441;50.856;6.076;2023-05-10T12:11:09;16.10;99.90
37594;DHT22;23441;50.856;6.076;2023-05-10T12:13:39;16.00;99.90
37594;DHT22;23441;50.856;6.076;2023-05-10T12:16:14;16.00;99.90
37594;DHT22;23441;50.856;6.076;2023-05-10T12:18:41;15.60;99.90
37594;DHT22;23441;50.856;6.076;2023-05-10T12:21:10;15.70;99.90
37594;DHT22;23441;50.856;6.076;2023-05-10T12:23:35;15.80;99.90
37594;DHT22;23441;50.856;6.076;2023-05-10T12:26:05;15.70;99.90
37594;DHT22;23441;50.856;6.076;2023-05-10T12:28:32;15.70;99.90
37594;DHT22;23441;50.856;6.076;2023-05-10T12:30:59;15.70;99.90
37594;DHT22;23441;50.856;6.076;2023-05-10T12:33:25;15.90;99.90
37594;DHT22;23441;50.856;6.076;2023-05-10T12:35:54;15.90;99.90
37594;DHT22;23441;50.856;6.076;2023-05-10T12:38:25;16.00;99.90
37594;DHT22;23441;50.856;6.076;2023-05-10T12:40:51;15.90;99.90
37594;DHT22;23441;50.856;6.076;2023-05-10T12:43:17;15.80;99.90
37594;DHT22;23441;50.856;6.076;2023-05-10T12:45:42;15.80;99.90
37594;DHT22;23441;50.856;6.076;2023-05-10T12:48:13;15.80;99.90
37594;DHT22;23441;50.856;6.076;2023-05-10T12:50:39;16.10;99.90
37594;DHT22;23441;50.856;6.076;2023-05-10T12:53:04;16.10;99.90
37594;DHT22;23441;50.856;6.076;2023-05-10T12:55:30;16.20;99.90
37594;DHT22;23441;50.856;6.076;2023-05-10T12:57:56;16.20;99.90
37594;DHT22;23441;50.856;6.076;2023-05-10T13:00:22;16.40;99.90
37594;DHT22;23441;50.856;6.076;2023-05-10T13:02:47;16.30;99.90
37594;DHT22;23441;50.856;6.076;2023-05-10T13:05:13;16.10;99.90
37594;DHT22;23441;50.856;6.076;2023-05-10T13:07:39;16.30;99.90
37594;DHT22;23441;50.856;6.076;2023-05-10T13:10:05;16.60;99.90
37594;DHT22;23441;50.856;6.076;2023-05-10T13:12:31;16.60;99.90
37594;DHT22;23441;50.856;6.076;2023-05-10T13:14:57;16.70;99.90
37594;DHT22;23441;50.856;6.076;2023-05-10T13:17:23;16.40;99.90
37594;DHT22;23441;50.856;6.076;2023-05-10T13:19:48;16.30;99.90
37594;DHT22;23441;50.856;6.076;2023-05-10T13:22:14;16.40;99.90
37594;DHT22;23441;50.856;6.076;2023-05-10T13:24:39;16.70;99.90
37594;DHT22;23441;50.856;6.076;2023-05-10T13:27:05;16.80;99.90
37594;DHT22;23441;50.856;6.076;2023-05-10T13:29:31;17.00;99.90
37594;DHT22;23441;50.856;6.076;2023-05-10T13:31:57;17.10;99.90
37594;DHT22;23441;50.856;6.076;2023-05-10T13:34:22;16.80;99.90
37594;DHT22;23441;50.856;6.076;2023-05-10T13:36:49;16.90;99.90
37594;DHT22;23441;50.856;6.076;2023-05-10T13:39:15;17.10;99.90
37594;DHT22;23441;50.856;6.076;2023-05-10T13:41:40;17.90;99.90
37594;DHT22;23441;50.856;6.076;2023-05-10T13:44:06;18.10;99.90
37594;DHT22;23441;50.856;6.076;2023-05-10T13:46:32;18.30;99.90
37594;DHT22;23441;50.856;6.076;2023-05-10T13:48:58;18.00;99.90
37594;DHT22;23441;50.856;6.076;2023-05-10T13:51:23;17.80;99.90
37594;DHT22;23441;50.856;6.076;2023-05-10T13:53:49;17.70;99.90
37594;DHT22;23441;50.856;6.076;2023-05-10T13:56:15;17.40;99.90
37594;DHT22;23441;50.856;6.076;2023-05-10T13:58:41;17.00;99.90
37594;DHT22;23441;50.856;6.076;2023-05-10T14:01:06;16.70;99.90
37594;DHT22;23441;50.856;6.076;2023-05-10T14:03:32;16.70;99.90
37594;DHT22;23441;50.856;6.076;2023-05-10T14:05:58;16.90;99.90
37594;DHT22;23441;50.856;6.076;2023-05-10T14:08:24;17.00;99.90
37594;DHT22;23441;50.856;6.076;2023-05-10T14:10:49;17.10;99.90
37594;DHT22;23441;50.856;6.076;2023-05-10T14:13:16;17.20;99.90
37594;DHT22;23441;50.856;6.076;2023-05-10T14:15:41;17.40;99.90
37594;DHT22;23441;50.856;6.076;2023-05-10T14:18:07;17.60;99.90
37594;DHT22;23441;50.856;6.076;2023-05-10T14:20:33;17.60;99.90
37594;DHT22;23441;50.856;6.076;2023-05-10T14:22:59;17.40;99.90
37594;DHT22;23441;50.856;6.076;2023-05-10T14:25:25;17.20;99.90
37594;DHT22;23441;50.856;6.076;2023-05-10T14:27:51;17.00;99.90
37594;DHT22;23441;50.856;6.076;2023-05-10T14:30:19;16.80;99.90
37594;DHT22;23441;50.856;6.076;2023-05-10T14:32:45;16.70;99.90
37594;DHT22;23441;50.856;6.076;2023-05-10T14:35:10;16.80;99.90
37594;DHT22;23441;50.856;6.076;2023-05-10T14:37:36;16.70;99.90
37594;DHT22;23441;50.856;6.076;2023-05-10T14:40:02;16.50;99.90
37594;DHT22;23441;50.856;6.076;2023-05-10T14:42:29;16.60;99.90
37594;DHT22;23441;50.856;6.076;2023-05-10T14:44:56;16.50;99.90
37594;DHT22;23441;50.856;6.076;2023-05-10T14:47:22;16.40;99.90
37594;DHT22;23441;50.856;6.076;2023-05-10T14:49:47;16.20;99.90
37594;DHT22;23441;50.856;6.076;2023-05-10T14:52:13;16.20;99.90
37594;DHT22;23441;50.856;6.076;2023-05-10T14:54:39;16.30;99.90
37594;DHT22;23441;50.856;6.076;2023-05-10T14:57:06;16.00;99.90
37594;DHT22;23441;50.856;6.076;2023-05-10T14:59:32;16.00;99.90
37594;DHT22;23441;50.856;6.076;2023-05-10T15:01:58;16.00;99.90
37594;DHT22;23441;50.856;6.076;2023-05-10T15:04:24;15.90;99.90
37594;DHT22;23441;50.856;6.076;2023-05-10T15:06:50;15.80;99.90
37594;DHT22;23441;50.856;6.076;2023-05-10T15:09:15;15.60;99.90
37594;DHT22;23441;50.856;6.076;2023-05-10T15:11:42;15.60;99.90
37594;DHT22;23441;50.856;6.076;2023-05-10T15:14:07;15.60;99.90
37594;DHT22;23441;50.856;6.076;2023-05-10T15:16:33;15.50;99.90
37594;DHT22;23441;50.856;6.076;2023-05-10T15:18:58;15.40;99.90
37594;DHT22;23441;50.856;6.076;2023-05-10T15:21:24;15.50;99.90
37594;DHT22;23441;50.856;6.076;2023-05-10T15:23:50;15.50;99.90
37594;DHT22;23441;50.856;6.076;2023-05-10T15:26:16;15.60;99.90
37594;DHT22;23441;50.856;6.076;2023-05-10T15:28:42;15.50;99.90
37594;DHT22;23441;50.856;6.076;2023-05-10T15:31:08;15.50;99.90
37594;DHT22;23441;50.856;6.076;2023-05-10T15:33:33;15.60;99.90
37594;DHT22;23441;50.856;6.076;2023-05-10T15:35:59;15.40;99.90
37594;DHT22;23441;50.856;6.076;2023-05-10T15:38:25;15.40;99.90
37594;DHT22;23441;50.856;6.076;2023-05-10T15:40:51;15.40;99.90
37594;DHT22;23441;50.856;6.076;2023-05-10T15:43:18;15.30;99.90
37594;DHT22;23441;50.856;6.076;2023-05-10T15:45:44;15.50;99.90
37594;DHT22;23441;50.856;6.076;2023-05-10T15:48:10;15.60;99.90
37594;DHT22;23441;50.856;6.076;2023-05-10T15:50:35;15.80;99.90
37594;DHT22;23441;50.856;6.076;2023-05-10T15:53:01;15.90;99.90
37594;DHT22;23441;50.856;6.076;2023-05-10T15:55:27;15.90;99.90
37594;DHT22;23441;50.856;6.076;2023-05-10T15:57:52;15.70;99.90
37594;DHT22;23441;50.856;6.076;2023-05-10T16:00:18;15.90;99.90
37594;DHT22;23441;50.856;6.076;2023-05-10T16:02:44;15.90;99.90
37594;DHT22;23441;50.856;6.076;2023-05-10T16:05:09;15.70;99.90
37594;DHT22;23441;50.856;6.076;2023-05-10T16:07:35;15.60;99.90
37594;DHT22;23441;50.856;6.076;2023-05-10T16:10:01;15.70;99.90
37594;DHT22;23441;50.856;6.076;2023-05-10T16:12:31;15.70;99.90
37594;DHT22;23441;50.856;6.076;2023-05-10T16:14:56;15.80;99.90
37594;DHT22;23441;50.856;6.076;2023-05-10T16:17:22;16.00;99.90
37594;DHT22;23441;50.856;6.076;2023-05-10T16:19:47;16.00;99.90
37594;DHT22;23441;50.856;6.076;2023-05-10T16:22:13;16.10;99.90